Main page
METAR-TAF:

METAR-TAF

Airports :

Lydd Airport

Lydd, England

latitude: 50-57N, longitude: 000-56E, elevation: 3 m

Current weather observation

The report was made 17 minutes ago, at 22:20 UTC
Wind 10 kt from the West
Temperature 12°C
Humidity 76%
Pressure 1019 hPa
Visibility 10 km or more

METAR: EGMD 212220Z AUTO 26010KT 9999 NCD 12/08 Q1019

Time: 23:37 (22:37 UTC)

Forecast

The report was made 2 hours and 38 minutes ago, at 19:59 UTC
Forecast valid from 21 at 21 UTC to 22 at 06 UTC
Wind 10 kt from the West
Visibility 10 km or more
Few clouds at a height of 3500 ft

TAF: EGMD 211959Z 2121/2206 26010KT 9999 FEW035

Weather observations and forecasts of more than 4000 airports (METAR and TAF reports).

The available stations are represented by yellow and red dots on the map.

Hover mouse over dot to see the name of the station.

Then click to see weather observations and forecasts.

To change the map : click on the green buttons with a black cross to zoom in, on the green button with a dash to zoom out, or on the green arrows for adjacent maps.


METAR-TAF: